Time;durP1;ratioP1;P1;durP2;ratioP2;P2;SDS_P1;SDS_P2;PMS_P1;PMS_P2;Temp;Humidity;BMP_temperature;BMP_pressure;BME280_temperature;BME280_humidity;BME280_pressure;Samples;Min_cycle;Max_cycle;Signal;HPM_P1;HPM_P2
2021/03/24 00:01:15;;;;;;;8.10;6.43;;;5.60;90.20;;;;;;5093093;28;20024;-75
2021/03/24 00:03:41;;;;;;;7.70;6.72;;;5.50;90.80;;;;;;5093008;28;20470;-75
2021/03/24 00:06:07;;;;;;;9.32;7.43;;;5.40;92.40;;;;;;5091892;28;20568;-76
2021/03/24 00:08:33;;;;;;;7.40;6.03;;;5.40;93.10;;;;;;5093316;28;20024;-77
2021/03/24 00:10:59;;;;;;;10.38;7.03;;;5.30;93.80;;;;;;5093295;28;20028;-77
2021/03/24 00:13:25;;;;;;;9.60;6.63;;;5.30;94.50;;;;;;5092951;28;20387;-77
2021/03/24 00:15:50;;;;;;;8.50;6.03;;;5.40;94.00;;;;;;5092661;28;20024;-76
2021/03/24 00:18:20;;;;;;;8.85;7.22;;;5.40;93.50;;;;;;5092936;28;20059;-76
2021/03/24 00:20:46;;;;;;;10.98;7.57;;;5.50;93.60;;;;;;5092368;28;20434;-76
2021/03/24 00:23:13;;;;;;;8.90;7.03;;;5.50;93.90;;;;;;5092747;28;20475;-77
2021/03/24 00:25:39;;;;;;;9.80;7.05;;;5.60;93.30;;;;;;5092918;28;20026;-77
2021/03/24 00:28:06;;;;;;;9.30;7.47;;;5.60;93.50;;;;;;5092251;28;20062;-77
2021/03/24 00:30:36;;;;;;;7.75;6.25;;;5.50;94.20;;;;;;5092527;28;20024;-77
2021/03/24 00:33:02;;;;;;;8.48;6.00;;;5.40;94.50;;;;;;5092588;28;20020;-77
2021/03/24 00:35:28;;;;;;;8.93;7.13;;;5.50;94.50;;;;;;5091983;28;20035;-76
2021/03/24 00:37:55;;;;;;;8.98;6.22;;;5.60;93.50;;;;;;5092444;28;20028;-76
2021/03/24 00:40:28;;;;;;;10.40;6.95;;;5.70;93.40;;;;;;5092620;28;20048;-77
2021/03/24 00:42:54;;;;;;;9.32;7.28;;;5.60;93.10;;;;;;5091912;28;20028;-77
2021/03/24 00:45:20;;;;;;;8.43;6.68;;;5.60;92.70;;;;;;5092499;28;20085;-77
2021/03/24 00:47:46;;;;;;;8.90;6.78;;;5.60;93.20;;;;;;5092389;28;20055;-77
2021/03/24 00:50:19;;;;;;;11.25;6.97;;;5.60;92.70;;;;;;5091788;28;20031;-78
2021/03/24 00:52:45;;;;;;;8.73;6.30;;;5.60;93.00;;;;;;5092069;28;20170;-78
2021/03/24 00:55:12;;;;;;;9.30;6.25;;;5.60;92.10;;;;;;5092298;28;20028;-77
2021/03/24 00:57:38;;;;;;;7.60;6.20;;;5.70;92.60;;;;;;5092035;28;20043;-76
2021/03/24 01:00:07;;;;;;;7.43;6.22;;;5.60;92.80;;;;;;5092271;28;20031;-76
2021/03/24 01:02:33;;;;;;;8.82;6.32;;;5.60;92.90;;;;;;5091571;28;20028;-75
2021/03/24 01:05:02;;;;;;;10.40;6.82;;;5.60;92.40;;;;;;5091765;28;20016;-76
2021/03/24 01:07:28;;;;;;;8.25;6.28;;;5.70;91.30;;;;;;5091960;28;20050;-75
2021/03/24 01:09:54;;;;;;;7.38;6.30;;;5.70;91.50;;;;;;5091981;28;20047;-75
2021/03/24 01:12:20;;;;;;;9.50;6.38;;;5.70;91.60;;;;;;5091604;28;20086;-74
2021/03/24 01:14:45;;;;;;;10.88;7.15;;;5.70;91.30;;;;;;5092036;28;20016;-75
2021/03/24 01:17:11;;;;;;;7.22;5.88;;;5.70;92.00;;;;;;5091430;28;20530;-75
2021/03/24 01:19:37;;;;;;;8.13;5.90;;;5.70;91.30;;;;;;5091900;28;20023;-75
2021/03/24 01:22:03;;;;;;;8.18;6.40;;;5.70;91.90;;;;;;5091528;28;20483;-74
2021/03/24 01:24:28;;;;;;;9.65;6.82;;;5.70;92.20;;;;;;5091884;28;20444;-75
2021/03/24 01:26:54;;;;;;;7.93;6.45;;;5.60;92.90;;;;;;5092178;28;20510;-75
2021/03/24 01:29:20;;;;;;;9.48;6.68;;;5.70;93.20;;;;;;5091442;28;20035;-75
2021/03/24 01:31:46;;;;;;;7.65;6.45;;;5.80;93.60;;;;;;5091776;28;20058;-76
2021/03/24 01:34:12;;;;;;;7.38;6.10;;;5.50;94.60;;;;;;5091495;28;20024;-74
2021/03/24 01:36:37;;;;;;;7.70;6.40;;;5.50;95.60;;;;;;5091305;28;20481;-73
2021/03/24 01:39:04;;;;;;;9.02;6.50;;;5.60;96.00;;;;;;5091527;28;20482;-77
2021/03/24 01:41:30;;;;;;;8.00;6.82;;;5.40;96.40;;;;;;5091696;28;20042;-75
2021/03/24 01:43:57;;;;;;;9.13;6.93;;;5.60;97.00;;;;;;5091104;28;20053;-76
2021/03/24 01:46:36;;;;;;;10.38;6.78;;;5.50;96.90;;;;;;5091613;28;20024;-76
2021/03/24 01:49:23;;;;;;;8.57;6.73;;;5.50;97.30;;;;;;5091585;28;20364;-77
2021/03/24 01:52:03;;;;;;;8.32;6.68;;;5.60;97.40;;;;;;5091557;28;20082;-76
2021/03/24 01:54:39;;;;;;;8.43;6.75;;;5.60;97.50;;;;;;5091244;28;20023;-76
2021/03/24 01:57:12;;;;;;;9.63;7.22;;;5.50;98.20;;;;;;5092003;28;20040;-76
2021/03/24 01:59:38;;;;;;;11.98;6.97;;;5.50;98.50;;;;;;5091425;28;20051;-77
2021/03/24 02:02:13;;;;;;;10.88;7.75;;;5.50;98.40;;;;;;5090870;28;20043;-76
2021/03/24 02:04:39;;;;;;;8.48;6.65;;;5.50;98.50;;;;;;5091371;28;20025;-76
2021/03/24 02:07:15;;;;;;;11.77;6.75;;;5.50;98.80;;;;;;5091354;28;20035;-77
2021/03/24 02:10:12;;;;;;;9.85;7.07;;;5.50;98.90;;;;;;5091372;28;20028;-76
2021/03/24 02:12:45;;;;;;;8.60;6.78;;;5.50;99.30;;;;;;5018898;28;20649;-76
2021/03/24 02:15:16;;;;;;;9.77;6.68;;;5.50;99.30;;;;;;5091401;28;20032;-76
2021/03/24 02:17:44;;;;;;;8.48;6.78;;;5.40;99.10;;;;;;5090910;28;20070;-76
2021/03/24 02:20:20;;;;;;;10.35;7.10;;;5.50;99.10;;;;;;5091306;28;20498;-74
2021/03/24 02:22:55;;;;;;;9.85;7.07;;;5.50;99.30;;;;;;5090960;28;20024;-74
2021/03/24 02:25:38;;;;;;;10.13;6.97;;;5.50;99.50;;;;;;5091152;28;20031;-75
2021/03/24 02:28:10;;;;;;;7.75;6.50;;;5.50;99.70;;;;;;5091349;28;20375;-76
2021/03/24 02:30:39;;;;;;;9.18;7.22;;;5.50;99.90;;;;;;5095128;28;20027;-75
2021/03/24 02:33:25;;;;;;;8.95;7.15;;;5.60;99.80;;;;;;5095028;28;20028;-76
2021/03/24 02:35:56;;;;;;;9.18;7.38;;;5.60;99.70;;;;;;5095102;28;20115;-76
2021/03/24 02:38:23;;;;;;;9.70;7.57;;;5.60;99.90;;;;;;5094879;28;20032;-76
2021/03/24 02:40:52;;;;;;;8.50;6.85;;;5.60;99.90;;;;;;5094842;28;20044;-75
2021/03/24 02:43:19;;;;;;;12.00;7.55;;;5.60;99.90;;;;;;5094343;28;20028;-76
2021/03/24 02:45:46;;;;;;;10.82;7.25;;;5.60;99.90;;;;;;5094859;28;20473;-75
2021/03/24 02:48:19;;;;;;;10.35;7.93;;;5.50;99.90;;;;;;5094505;28;20099;-77
2021/03/24 02:50:46;;;;;;;10.13;7.90;;;5.60;99.90;;;;;;5091409;28;20036;-75
2021/03/24 02:53:14;;;;;;;10.10;8.07;;;5.50;99.90;;;;;;5074258;28;20024;-75
2021/03/24 02:55:42;;;;;;;11.60;7.82;;;5.60;99.90;;;;;;5074262;28;20024;-75
2021/03/24 02:58:10;;;;;;;12.07;7.90;;;5.70;99.90;;;;;;5074425;28;20388;-74
2021/03/24 03:00:36;;;;;;;10.00;7.68;;;5.60;99.90;;;;;;5074149;28;20063;-75
2021/03/24 03:03:09;;;;;;;10.93;8.80;;;5.70;99.90;;;;;;5073818;28;20051;-75
2021/03/24 03:05:37;;;;;;;12.90;8.95;;;5.60;99.90;;;;;;5056098;28;20025;-76
2021/03/24 03:08:05;;;;;;;12.10;9.45;;;5.60;99.90;;;;;;5074079;28;20031;-75
2021/03/24 03:10:33;;;;;;;10.35;8.48;;;5.60;99.90;;;;;;5074231;28;20183;-75
2021/03/24 03:13:12;;;;;;;12.13;8.82;;;5.50;99.90;;;;;;5074184;28;20029;-75
2021/03/24 03:16:01;;;;;;;10.90;8.68;;;5.50;99.90;;;;;;5073712;28;20043;-76
2021/03/24 03:18:50;;;;;;;11.90;9.10;;;5.40;99.90;;;;;;5073519;28;20127;-75
2021/03/24 03:21:22;;;;;;;12.52;9.15;;;5.40;99.90;;;;;;5073669;28;20025;-76
2021/03/24 03:23:49;;;;;;;12.48;9.52;;;5.40;99.90;;;;;;5073787;28;20103;-76
2021/03/24 03:26:19;;;;;;;12.75;9.45;;;5.40;99.90;;;;;;5074152;28;20036;-76
2021/03/24 03:28:48;;;;;;;12.18;9.75;;;5.40;99.90;;;;;;5073969;28;20376;-76
2021/03/24 03:31:18;;;;;;;12.30;10.07;;;5.40;99.90;;;;;;5073490;28;20479;-76
2021/03/24 03:33:49;;;;;;;13.13;9.85;;;5.30;99.90;;;;;;5073724;28;20051;-76
2021/03/24 03:36:16;;;;;;;14.73;9.00;;;5.30;99.90;;;;;;5073608;28;20079;-75
2021/03/24 03:38:44;;;;;;;11.93;9.68;;;5.20;99.90;;;;;;5073486;28;20032;-76
2021/03/24 03:41:13;;;;;;;11.00;9.35;;;5.20;99.90;;;;;;5073269;28;20028;-75
2021/03/24 03:43:45;;;;;;;12.50;9.73;;;5.20;99.90;;;;;;5073550;28;20031;-76
2021/03/24 03:46:15;;;;;;;10.90;9.30;;;5.30;99.90;;;;;;5073221;28;20036;-76
2021/03/24 03:48:45;;;;;;;11.07;9.07;;;5.20;99.90;;;;;;5073426;28;20031;-76
2021/03/24 03:51:21;;;;;;;13.25;10.00;;;5.20;99.90;;;;;;5079872;28;20051;-75
2021/03/24 03:54:05;;;;;;;11.25;9.35;;;5.20;99.90;;;;;;5093582;28;20016;-76
2021/03/24 03:56:42;;;;;;;9.05;7.40;;;5.00;99.90;;;;;;5093431;28;20040;-74
2021/03/24 03:59:13;;;;;;;9.52;8.07;;;4.70;99.90;;;;;;5093200;28;20050;-75
2021/03/24 04:01:50;;;;;;;8.75;7.00;;;4.70;99.90;;;;;;5092848;28;20020;-76
2021/03/24 04:04:21;;;;;;;14.13;8.63;;;4.70;99.90;;;;;;5093251;28;20145;-76
2021/03/24 04:06:59;;;;;;;9.60;7.97;;;4.60;99.90;;;;;;5075281;28;20529;-75
2021/03/24 04:09:25;;;;;;;10.93;9.43;;;4.50;99.90;;;;;;5092989;28;20052;-76
2021/03/24 04:11:53;;;;;;;13.70;9.82;;;4.60;99.90;;;;;;5093088;28;20028;-76
2021/03/24 04:14:22;;;;;;;12.23;9.15;;;4.60;99.90;;;;;;5092970;28;20028;-75
2021/03/24 04:16:49;;;;;;;12.20;9.32;;;4.60;99.90;;;;;;5093237;28;20032;-76
2021/03/24 04:19:18;;;;;;;11.10;8.90;;;4.70;99.90;;;;;;5092946;28;20032;-75
2021/03/24 04:21:50;;;;;;;11.70;9.93;;;4.50;99.90;;;;;;5092600;28;20016;-77
2021/03/24 04:24:26;;;;;;;10.50;8.25;;;4.60;99.90;;;;;;5093474;28;20389;-76
2021/03/24 04:26:59;;;;;;;13.43;9.45;;;4.60;99.90;;;;;;5092603;28;20024;-77
2021/03/24 04:29:58;;;;;;;13.25;9.85;;;4.80;99.90;;;;;;5092897;28;20396;-75
2021/03/24 04:32:24;;;;;;;12.40;9.23;;;4.90;99.90;;;;;;5092624;28;20598;-76
2021/03/24 04:34:50;;;;;;;9.88;8.18;;;4.80;99.90;;;;;;5092677;28;20027;-76
2021/03/24 04:37:41;;;;;;;10.25;8.15;;;4.50;99.90;;;;;;5092625;28;20036;-76
2021/03/24 04:40:34;;;;;;;12.55;9.43;;;4.50;99.90;;;;;;5092316;28;20065;-76
2021/03/24 04:43:14;;;;;;;13.73;10.00;;;4.70;99.90;;;;;;5092722;28;20036;-75
2021/03/24 04:45:53;;;;;;;12.50;9.25;;;4.90;99.90;;;;;;5092324;28;20031;-75
2021/03/24 04:48:26;;;;;;;11.55;9.80;;;4.80;99.90;;;;;;5092295;28;20024;-75
2021/03/24 04:51:00;;;;;;;8.48;7.40;;;4.90;99.90;;;;;;5091806;28;20043;-76
2021/03/24 04:53:31;;;;;;;10.65;8.82;;;4.40;99.90;;;;;;5092201;28;20387;-76
2021/03/24 04:55:58;;;;;;;8.38;7.55;;;4.50;99.90;;;;;;5092264;28;20032;-75
2021/03/24 04:58:37;;;;;;;9.50;8.27;;;4.50;99.90;;;;;;5092357;28;20046;-74
2021/03/24 05:01:20;;;;;;;10.13;8.70;;;4.40;99.90;;;;;;5073605;28;20078;-75
2021/03/24 05:03:49;;;;;;;10.48;8.60;;;4.70;99.90;;;;;;5091951;28;20483;-74
2021/03/24 05:06:40;;;;;;;10.43;7.50;;;4.70;99.90;;;;;;5092002;28;20559;-76
2021/03/24 05:09:06;;;;;;;;;;;4.50;99.90;;;;;;5082773;28;20028;-75
2021/03/24 05:11:45;;;;;;;8.80;7.47;;;4.60;99.90;;;;;;5092195;28;20006;-78
2021/03/24 05:14:37;;;;;;;9.65;7.60;;;4.50;99.90;;;;;;5073917;28;20036;-76
2021/03/24 05:17:42;;;;;;;11.82;8.60;;;4.60;99.90;;;;;;5091974;28;20067;-76
2021/03/24 05:20:35;;;;;;;11.38;8.77;;;4.60;99.90;;;;;;5009388;28;20040;-75
2021/03/24 05:23:05;;;;;;;12.43;9.02;;;4.60;99.90;;;;;;5009741;28;20453;-76
2021/03/24 05:25:38;;;;;;;12.43;8.93;;;4.70;99.90;;;;;;5065648;28;20044;-75
2021/03/24 05:28:21;;;;;;;15.95;9.07;;;4.90;99.90;;;;;;5091712;28;20483;-75
2021/03/24 05:30:59;;;;;;;13.45;8.85;;;4.80;99.90;;;;;;5091698;28;20031;-75
2021/03/24 05:33:28;;;;;;;11.00;8.75;;;5.00;99.90;;;;;;5091457;28;20056;-75
2021/03/24 05:35:57;;;;;;;11.30;8.85;;;4.90;99.90;;;;;;5091424;28;20154;-74
2021/03/24 05:38:35;;;;;;;10.02;8.50;;;4.90;99.90;;;;;;5091750;28;20035;-74
2021/03/24 05:41:29;;;;;;;10.27;8.02;;;4.70;99.90;;;;;;5091245;28;20024;-74
2021/03/24 05:44:04;;;;;;;12.15;9.43;;;4.90;99.90;;;;;;5091192;28;20032;-74
2021/03/24 05:46:59;;;;;;;13.73;9.93;;;5.00;99.90;;;;;;5091395;28;20020;-74
2021/03/24 05:49:42;;;;;;;12.98;9.50;;;5.00;99.90;;;;;;5062128;28;20071;-74
2021/03/24 05:52:49;;;;;;;14.32;10.52;;;4.90;99.90;;;;;;5091267;28;20040;-74
2021/03/24 05:55:41;;;;;;;12.48;9.70;;;5.00;99.90;;;;;;5091145;28;20039;-75
2021/03/24 05:58:32;;;;;;;10.23;8.90;;;5.00;99.90;;;;;;5091270;28;20064;-75
2021/03/24 06:00:58;;;;;;;;;;;5.10;99.90;;;;;;5091571;28;20034;-76
2021/03/24 06:03:31;;;;;;;12.60;9.10;;;4.90;99.90;;;;;;5092382;28;19904;-76
2021/03/24 06:06:15;;;;;;;10.98;8.75;;;4.40;99.90;;;;;;5095166;28;20382;-75
2021/03/24 06:09:18;;;;;;;10.68;7.55;;;4.30;99.90;;;;;;5095402;28;20028;-75
2021/03/24 06:12:16;;;;;;;8.68;7.07;;;4.60;99.90;;;;;;5095358;28;20382;-76
2021/03/24 06:15:29;;;;;;;10.57;8.48;;;4.50;99.90;;;;;;5093318;28;20024;-75
2021/03/24 06:18:03;;;;;;;9.50;7.65;;;4.80;99.90;;;;;;5087460;28;20517;-75
2021/03/24 06:21:02;;;;;;;10.70;8.07;;;4.80;99.90;;;;;;5095216;28;20032;-76
2021/03/24 06:24:04;;;;;;;17.88;12.88;;;4.90;99.90;;;;;;5095057;28;20028;-76
2021/03/24 06:26:39;;;;;;;8.75;6.63;;;5.60;99.90;;;;;;5096596;28;20115;-74
2021/03/24 06:29:16;;;;;;;7.90;6.55;;;5.40;99.90;;;;;;5109773;28;20027;-75
2021/03/24 06:32:09;;;;;;;9.45;7.60;;;5.10;99.90;;;;;;5094517;28;20467;-74
2021/03/24 06:34:56;;;;;;;8.98;7.00;;;5.30;99.90;;;;;;5073922;28;20029;-74
2021/03/24 06:37:57;;;;;;;9.73;7.35;;;5.90;99.90;;;;;;5074322;28;20063;-75
2021/03/24 06:40:38;;;;;;;;;;;6.20;99.90;;;;;;5074961;28;20024;-76
2021/03/24 06:43:16;;;;;;;6.90;5.53;;;6.30;99.90;;;;;;5074382;28;19913;-75
2021/03/24 06:46:00;;;;;;;7.75;5.95;;;6.00;99.90;;;;;;5074176;28;20024;-76
2021/03/24 06:48:46;;;;;;;7.38;5.82;;;6.50;99.90;;;;;;5056088;28;20082;-76
2021/03/24 06:51:24;;;;;;;6.50;5.53;;;6.80;92.50;;;;;;5055731;28;20047;-75
2021/03/24 06:54:16;;;;;;;8.70;5.90;;;6.50;89.20;;;;;;5079115;28;20067;-76
2021/03/24 06:57:06;;;;;;;6.88;5.55;;;6.80;86.70;;;;;;5088312;28;20074;-76
2021/03/24 06:59:35;;;;;;;6.63;5.68;;;7.10;80.60;;;;;;5092401;28;20054;-75
2021/03/24 07:02:13;;;;;;;7.68;5.57;;;7.20;71.10;;;;;;5075559;28;20036;-75
2021/03/24 07:05:00;;;;;;;6.50;4.75;;;7.10;65.60;;;;;;5094017;28;20482;-76
2021/03/24 07:07:37;;;;;;;7.13;5.47;;;7.10;66.10;;;;;;5093828;28;20055;-78
2021/03/24 07:10:06;;;;;;;28.90;15.25;;;7.20;67.30;;;;;;5094048;28;20550;-75
2021/03/24 07:12:44;;;;;;;19.67;12.73;;;7.40;74.50;;;;;;5093736;28;20040;-75
2021/03/24 07:15:26;;;;;;;8.07;6.07;;;7.70;68.50;;;;;;5093333;28;20303;-77
2021/03/24 07:18:05;;;;;;;8.63;5.43;;;7.20;69.20;;;;;;5097708;28;20020;-75
2021/03/24 07:20:34;;;;;;;6.90;5.45;;;7.10;70.20;;;;;;5113100;28;20055;-74
2021/03/24 07:23:21;;;;;;;7.93;5.70;;;7.20;67.90;;;;;;5113440;28;20059;-77
2021/03/24 07:25:59;;;;;;;6.50;5.18;;;7.10;67.70;;;;;;5112242;28;20034;-75
2021/03/24 07:29:05;;;;;;;7.22;5.20;;;7.20;67.40;;;;;;5079163;28;20482;-75
2021/03/24 07:31:59;;;;;;;7.78;5.53;;;6.80;67.60;;;;;;4989197;28;20121;-74
2021/03/24 07:34:43;;;;;;;7.70;6.00;;;7.10;68.50;;;;;;5075609;28;20063;-75
2021/03/24 07:37:27;;;;;;;9.18;5.90;;;7.20;66.90;;;;;;5091510;28;20028;-75
2021/03/24 07:40:28;;;;;;;7.30;5.28;;;7.30;69.00;;;;;;5092171;28;20016;-75
2021/03/24 07:43:26;;;;;;;7.55;5.30;;;7.30;65.30;;;;;;5092642;28;20028;-75
2021/03/24 07:45:55;;;;;;;8.35;6.10;;;7.40;66.10;;;;;;5073357;28;20035;-76
2021/03/24 07:48:41;;;;;;;9.05;6.38;;;7.30;67.20;;;;;;5093420;28;20122;-76
2021/03/24 07:51:57;;;;;;;9.77;5.85;;;7.40;66.90;;;;;;5092982;28;20043;-76
2021/03/24 07:54:34;;;;;;;6.78;5.30;;;7.40;67.90;;;;;;5074724;28;20032;-75
2021/03/24 07:57:38;;;;;;;7.55;5.55;;;7.50;67.40;;;;;;5093223;28;20428;-75
2021/03/24 08:00:18;;;;;;;8.55;5.15;;;7.50;66.00;;;;;;5091169;28;20905;-75
2021/03/24 08:02:53;;;;;;;9.18;5.65;;;7.70;64.30;;;;;;5092787;28;20051;-76
2021/03/24 08:05:43;;;;;;;9.00;6.05;;;8.00;63.60;;;;;;5092973;28;20060;-75
2021/03/24 08:08:33;;;;;;;10.40;5.70;;;8.00;64.40;;;;;;5092505;28;20478;-76
2021/03/24 08:11:03;;;;;;;9.57;5.93;;;7.70;64.40;;;;;;5092764;28;20035;-74
2021/03/24 08:13:47;;;;;;;6.33;5.00;;;7.80;64.10;;;;;;5092260;28;20032;-76
2021/03/24 08:16:50;;;;;;;7.20;5.30;;;7.70;64.40;;;;;;5092254;28;20281;-76
2021/03/24 08:19:50;;;;;;;6.85;5.35;;;8.20;63.60;;;;;;5091220;28;20035;-75
2021/03/24 08:22:56;;;;;;;8.02;4.70;;;8.50;59.80;;;;;;5021959;28;20059;-74
2021/03/24 08:25:44;;;;;;;7.18;4.57;;;8.90;58.20;;;;;;5090246;28;20032;-75
2021/03/24 08:28:24;;;;;;;5.30;4.20;;;9.70;56.60;;;;;;5090957;28;20054;-75
2021/03/24 08:31:06;;;;;;;6.97;4.50;;;9.90;56.00;;;;;;5092239;28;20451;-75
2021/03/24 08:33:45;;;;;;;5.80;4.60;;;10.30;54.40;;;;;;5092180;28;20020;-74
2021/03/24 08:36:28;;;;;;;6.70;4.63;;;10.90;54.40;;;;;;5092309;28;20028;-77
2021/03/24 08:39:33;;;;;;;7.00;4.30;;;11.00;52.60;;;;;;5092319;28;20043;-75
2021/03/24 08:42:17;;;;;;;6.68;4.45;;;11.10;52.30;;;;;;5090588;28;20371;-76
2021/03/24 08:44:55;;;;;;;7.20;4.30;;;11.20;52.60;;;;;;5087610;28;20026;-76
2021/03/24 08:47:29;;;;;;;6.25;4.03;;;11.10;52.90;;;;;;5085870;28;20028;-75
2021/03/24 08:49:58;;;;;;;8.07;3.88;;;11.10;52.30;;;;;;5079199;28;20110;-75
2021/03/24 08:52:30;;;;;;;7.38;4.15;;;10.90;51.60;;;;;;5079705;28;20044;-75
2021/03/24 08:55:21;;;;;;;5.78;4.10;;;10.70;51.40;;;;;;5090318;28;20039;-75
2021/03/24 08:57:55;;;;;;;6.38;4.28;;;10.80;53.00;;;;;;5091420;28;20060;-76
2021/03/24 09:00:40;;;;;;;7.75;5.22;;;11.00;53.90;;;;;;5091381;28;20476;-76
2021/03/24 09:03:11;;;;;;;8.75;5.50;;;10.70;54.20;;;;;;5091430;28;20082;-76
2021/03/24 09:05:51;;;;;;;9.38;6.22;;;10.00;56.50;;;;;;5091616;28;20020;-77
2021/03/24 09:08:33;;;;;;;10.10;6.95;;;9.10;60.20;;;;;;5091475;28;20134;-75
2021/03/24 09:11:05;;;;;;;9.95;6.97;;;9.00;63.40;;;;;;5091439;28;20055;-76
2021/03/24 09:13:43;;;;;;;9.10;6.35;;;8.90;64.90;;;;;;5090739;28;20038;-74
2021/03/24 09:16:12;;;;;;;8.05;4.97;;;9.30;66.50;;;;;;5090877;28;20024;-75
2021/03/24 09:19:00;;;;;;;10.50;5.60;;;7.70;66.10;;;;;;5091329;28;20056;-79
2021/03/24 09:21:32;;;;;;;8.38;5.57;;;9.10;65.50;;;;;;5091021;28;20086;-75
2021/03/24 09:24:10;;;;;;;7.85;5.43;;;9.50;63.90;;;;;;5091154;28;20020;-79
2021/03/24 09:27:14;;;;;;;7.97;5.20;;;9.90;65.10;;;;;;5090042;28;20084;-77
2021/03/24 09:29:48;;;;;;;6.47;4.95;;;10.50;60.60;;;;;;5067087;28;20111;-81
2021/03/24 09:32:30;;;;;;;6.32;4.80;;;10.70;58.10;;;;;;5084583;28;20035;-76
2021/03/24 09:35:03;;;;;;;7.30;5.00;;;10.20;60.50;;;;;;5088491;28;20125;-77
2021/03/24 09:37:44;;;;;;;6.90;5.43;;;10.60;59.80;;;;;;5090052;28;20035;-77
2021/03/24 09:40:14;;;;;;;7.32;5.28;;;10.80;60.00;;;;;;5088647;28;20032;-76
2021/03/24 09:42:51;;;;;;;7.32;5.38;;;11.10;58.50;;;;;;5088914;28;20040;-76
2021/03/24 09:45:21;;;;;;;7.75;6.53;;;11.10;58.20;;;;;;5069440;28;20028;-75
2021/03/24 09:47:52;;;;;;;;;;;10.30;61.10;;;;;;5089500;28;20027;-76
2021/03/24 09:50:37;;;;;;;;;;;10.80;60.00;;;;;;5088920;28;19908;-76
2021/03/24 09:53:10;;;;;;;6.57;4.68;;;10.40;58.30;;;;;;5088867;28;19923;-77
2021/03/24 09:55:46;;;;;;;7.65;5.35;;;10.70;58.90;;;;;;5090717;28;20020;-76
2021/03/24 09:58:18;;;;;;;7.28;5.55;;;10.60;59.80;;;;;;5072382;28;20446;-77
2021/03/24 10:01:11;;;;;;;7.85;6.00;;;10.80;59.90;;;;;;5089981;28;20056;-75
2021/03/24 10:03:39;;;;;;;8.07;6.13;;;9.80;64.10;;;;;;5071001;28;20077;-76
2021/03/24 10:06:09;;;;;;;7.55;5.78;;;8.90;67.30;;;;;;5087752;28;20120;-77
2021/03/24 10:08:40;;;;;;;7.93;6.35;;;9.40;65.60;;;;;;5090452;28;20107;-76
2021/03/24 10:11:09;;;;;;;12.95;7.82;;;7.90;79.50;;;;;;5072540;28;20043;-77
2021/03/24 10:13:54;;;;;;;10.88;7.78;;;8.40;88.90;;;;;;5090920;28;20042;-75
2021/03/24 10:16:29;;;;;;;11.93;8.45;;;8.80;93.60;;;;;;5090528;28;20407;-77
2021/03/24 10:19:00;;;;;;;10.73;8.18;;;8.10;97.10;;;;;;5089452;28;20039;-75
2021/03/24 10:21:52;;;;;;;11.98;6.85;;;7.10;99.90;;;;;;5086444;28;21341;-76
2021/03/24 10:24:32;;;;;;;8.85;7.18;;;7.30;99.90;;;;;;5087571;28;20028;-75
2021/03/24 10:27:11;;;;;;;12.45;6.95;;;7.00;99.90;;;;;;5078895;28;20637;-73
2021/03/24 10:29:56;;;;;;;8.73;7.07;;;7.20;99.90;;;;;;5091746;28;20558;-75
2021/03/24 10:32:39;;;;;;;9.13;6.50;;;8.00;99.90;;;;;;5096842;28;20084;-75
2021/03/24 10:35:34;;;;;;;10.50;7.70;;;8.50;94.80;;;;;;5091785;28;20031;-75
2021/03/24 10:38:22;;;;;;;9.93;7.75;;;9.20;94.80;;;;;;5097650;28;20106;-75
2021/03/24 10:41:11;;;;;;;8.68;6.50;;;8.80;97.30;;;;;;5097593;28;20031;-77
2021/03/24 10:43:46;;;;;;;10.32;6.70;;;9.40;88.60;;;;;;5084885;28;20066;-76
2021/03/24 10:46:31;;;;;;;10.63;7.05;;;7.60;96.30;;;;;;5087269;28;20040;-76
2021/03/24 10:49:04;;;;;;;15.85;6.88;;;7.90;98.40;;;;;;5087795;28;20091;-76
2021/03/24 10:51:53;;;;;;;8.55;6.00;;;8.80;92.80;;;;;;5090385;28;20097;-77
2021/03/24 10:54:25;;;;;;;8.43;5.88;;;7.50;96.10;;;;;;5087090;28;20098;-75
2021/03/24 10:57:08;;;;;;;8.65;6.25;;;7.80;98.30;;;;;;5090662;28;20055;-76
2021/03/24 11:00:17;;;;;;;9.45;6.82;;;8.10;96.30;;;;;;5093013;28;20028;-76
2021/03/24 11:03:14;;;;;;;10.05;6.55;;;8.30;95.20;;;;;;5077181;28;20024;-75
2021/03/24 11:05:48;;;;;;;8.43;6.90;;;8.40;96.10;;;;;;5092718;28;20024;-76
2021/03/24 11:08:27;;;;;;;8.73;7.07;;;8.20;99.90;;;;;;5071147;28;20031;-75
2021/03/24 11:10:59;;;;;;;11.73;7.50;;;7.20;99.90;;;;;;5089709;28;20024;-76
2021/03/24 11:13:33;;;;;;;12.57;9.30;;;7.50;99.90;;;;;;5090750;28;20081;-75
2021/03/24 11:16:10;;;;;;;9.95;7.40;;;7.40;99.90;;;;;;5093297;28;20104;-75
2021/03/24 11:18:48;;;;;;;10.77;7.90;;;7.00;99.90;;;;;;5093531;28;20028;-77
2021/03/24 11:21:50;;;;;;;10.77;8.40;;;7.10;99.90;;;;;;5093420;28;20024;-74
2021/03/24 11:24:50;;;;;;;8.98;7.20;;;6.50;99.90;;;;;;5053589;28;20040;-75
2021/03/24 11:27:23;;;;;;;11.03;6.70;;;6.10;99.90;;;;;;5073147;28;20037;-76
2021/03/24 11:30:23;;;;;;;8.63;6.10;;;6.20;99.90;;;;;;5073337;28;20385;-76
2021/03/24 11:32:49;;;;;;;10.75;7.22;;;6.20;99.90;;;;;;5073152;28;20025;-75
2021/03/24 11:35:45;;;;;;;10.35;6.75;;;6.90;99.90;;;;;;5073462;28;20064;-75
2021/03/24 11:38:42;;;;;;;8.95;7.15;;;6.80;99.90;;;;;;5082001;28;20036;-75
2021/03/24 11:41:19;;;;;;;10.02;6.68;;;7.70;99.90;;;;;;5093549;28;20032;-76
2021/03/24 11:43:56;;;;;;;9.75;6.88;;;7.30;99.90;;;;;;5093413;28;20039;-75
2021/03/24 11:46:28;;;;;;;9.65;6.57;;;8.20;99.90;;;;;;5090364;28;20348;-77
2021/03/24 11:49:02;;;;;;;6.20;4.80;;;7.20;99.90;;;;;;5092172;28;20047;-75
2021/03/24 11:51:44;;;;;;;7.95;6.63;;;6.60;99.90;;;;;;5093055;28;20048;-74
2021/03/24 11:54:33;;;;;;;7.70;6.80;;;7.00;99.90;;;;;;5092999;28;20020;-76
2021/03/24 11:57:14;;;;;;;9.95;7.15;;;7.00;99.90;;;;;;5092682;28;20051;-78
2021/03/24 12:00:02;;;;;;;11.10;8.20;;;7.00;99.90;;;;;;5092665;28;20034;-78
2021/03/24 12:03:05;;;;;;;9.07;7.25;;;7.20;99.90;;;;;;5093154;28;20138;-76
2021/03/24 12:05:54;;;;;;;10.07;6.75;;;7.00;99.90;;;;;;5091061;28;20086;-75
2021/03/24 12:08:35;;;;;;;10.00;7.63;;;6.80;99.90;;;;;;5077700;28;20040;-75
2021/03/24 12:11:29;;;;;;;11.13;8.73;;;6.70;99.90;;;;;;5089519;28;20085;-75
2021/03/24 12:14:14;;;;;;;12.13;7.97;;;7.10;99.90;;;;;;5091297;28;20024;-75
2021/03/24 12:16:46;;;;;;;11.13;7.78;;;7.10;99.90;;;;;;5088557;28;20024;-74
2021/03/24 12:19:31;;;;;;;11.18;8.40;;;7.80;99.90;;;;;;5091186;28;20073;-75
2021/03/24 12:22:03;;;;;;;9.63;8.25;;;8.60;99.90;;;;;;5088472;28;20024;-76
2021/03/24 12:24:37;;;;;;;10.20;7.95;;;8.90;99.80;;;;;;5091368;28;20652;-75
2021/03/24 12:27:18;;;;;;;9.30;7.75;;;8.40;96.50;;;;;;5089233;28;20028;-74
2021/03/24 12:30:17;;;;;;;10.35;8.35;;;9.50;94.40;;;;;;5089360;28;20027;-76
2021/03/24 12:32:43;;;;;;;10.00;7.65;;;10.00;93.80;;;;;;5077641;28;20027;-76
2021/03/24 12:35:20;;;;;;;11.27;7.82;;;9.60;91.00;;;;;;5092016;28;20020;-76
2021/03/24 12:37:51;;;;;;;13.60;9.35;;;8.30;95.60;;;;;;5100886;28;20028;-75
2021/03/24 12:40:23;;;;;;;;;;;8.80;95.20;;;;;;5080733;28;20028;-74
2021/03/24 12:42:51;;;;;;;9.85;7.35;;;8.90;92.00;;;;;;5091581;28;19908;-75
2021/03/24 12:45:31;;;;;;;8.85;6.60;;;9.20;91.60;;;;;;5092082;28;20035;-76
2021/03/24 12:48:09;;;;;;;11.10;7.93;;;8.60;89.00;;;;;;5091382;28;20069;-76
2021/03/24 12:50:51;;;;;;;7.88;6.57;;;9.60;81.60;;;;;;5092185;28;20016;-75
2021/03/24 12:53:32;;;;;;;9.77;6.80;;;9.50;72.60;;;;;;5072073;28;20111;-75
2021/03/24 12:56:12;;;;;;;;;;;9.40;72.50;;;;;;5092668;28;20020;-76
2021/03/24 12:58:47;;;;;;;10.20;7.00;;;9.10;74.30;;;;;;5091233;28;19919;-75
2021/03/24 13:01:33;;;;;;;10.63;7.25;;;8.90;80.00;;;;;;5091855;28;20028;-75
2021/03/24 13:04:17;;;;;;;9.05;7.30;;;8.90;86.20;;;;;;5100039;28;20085;-75
2021/03/24 13:07:01;;;;;;;9.80;6.90;;;8.80;88.40;;;;;;5111330;28;20035;-75
2021/03/24 13:10:04;;;;;;;9.20;6.45;;;8.70;89.60;;;;;;5111659;28;20019;-75
2021/03/24 13:13:13;;;;;;;9.82;7.45;;;8.30;90.40;;;;;;5079343;28;20521;-75
2021/03/24 13:15:52;;;;;;;8.93;7.20;;;8.40;94.40;;;;;;5099982;28;20036;-76
2021/03/24 13:18:29;;;;;;;8.70;6.80;;;8.30;97.90;;;;;;5096396;28;20115;-77
2021/03/24 13:21:01;;;;;;;9.60;7.15;;;8.90;99.90;;;;;;5090879;28;20035;-77
2021/03/24 13:23:54;;;;;;;8.98;7.28;;;9.40;97.60;;;;;;5090973;28;20031;-77
2021/03/24 13:26:38;;;;;;;10.98;7.43;;;9.50;97.60;;;;;;5090872;28;20024;-76
2021/03/24 13:29:34;;;;;;;13.35;7.75;;;9.60;98.30;;;;;;5090962;28;20024;-77
2021/03/24 13:32:30;;;;;;;9.73;8.13;;;9.40;98.20;;;;;;5090796;28;20059;-78
2021/03/24 13:35:14;;;;;;;9.32;7.60;;;8.90;98.60;;;;;;5090568;28;20065;-77
2021/03/24 13:37:40;;;;;;;11.27;8.63;;;8.10;99.40;;;;;;5090834;28;20028;-78
2021/03/24 13:40:35;;;;;;;10.50;8.32;;;7.70;99.90;;;;;;5091179;28;20024;-75
2021/03/24 13:43:09;;;;;;;11.13;8.88;;;7.80;99.90;;;;;;5072670;28;20028;-78
2021/03/24 13:45:53;;;;;;;12.27;8.27;;;7.90;99.90;;;;;;5090878;28;20387;-78
2021/03/24 13:48:26;;;;;;;13.05;9.60;;;8.10;99.90;;;;;;5090727;28;20078;-76
2021/03/24 13:51:05;;;;;;;11.90;8.75;;;8.00;99.90;;;;;;5090913;28;20032;-76